Time;durP1;ratioP1;P1;durP2;ratioP2;P2;SDS_P1;SDS_P2;PMS_P1;PMS_P2;Temp;Humidity;BMP_temperature;BMP_pressure;BME280_temperature;BME280_humidity;BME280_pressure;Samples;Min_cycle;Max_cycle;Signal;HPM_P1;HPM_P2
2022/10/01 00:01:58;;;;;;;5.30;2.17;;;;;;;11.18;75.29;99200.31;5015511;28;20021;-91
2022/10/01 00:04:25;;;;;;;4.45;1.80;;;;;;;11.16;75.29;99187.06;4998511;28;20100;-92
2022/10/01 00:06:51;;;;;;;4.50;1.95;;;;;;;11.16;75.39;99181.63;5015419;28;20032;-88
2022/10/01 00:09:16;;;;;;;4.77;1.70;;;;;;;11.23;75.15;99178.22;4999013;28;20050;-87
2022/10/01 00:11:42;;;;;;;5.20;1.92;;;;;;;11.20;75.32;99187.13;4999263;28;20293;-93
2022/10/01 00:14:10;;;;;;;6.53;2.40;;;;;;;11.21;75.41;99181.31;5016415;28;20471;-88
2022/10/01 00:16:35;;;;;;;4.55;2.15;;;;;;;11.20;75.94;99179.75;5015143;28;20029;-92
2022/10/01 00:19:01;;;;;;;5.40;2.13;;;;;;;11.20;75.93;99185.19;4997883;28;20100;-90
2022/10/01 00:21:31;;;;;;;9.07;3.13;;;;;;;11.16;77.00;99181.63;5015631;28;20269;-89
2022/10/01 00:24:03;;;;;;;8.07;2.05;;;;;;;11.12;77.65;99178.03;5015627;28;20060;-88
2022/10/01 00:26:34;;;;;;;5.43;1.90;;;;;;;11.06;78.91;99184.91;4997605;28;20116;-87
2022/10/01 00:29:03;;;;;;;5.32;1.95;;;;;;;10.92;80.26;99177.28;5013661;28;20034;-84
2022/10/01 00:31:29;;;;;;;4.32;2.03;;;;;;;10.78;81.98;99174.28;5013389;28;20032;-89
2022/10/01 00:33:57;;;;;;;5.13;2.25;;;;;;;10.63;83.92;99161.50;5014390;28;20109;-90
2022/10/01 00:36:23;;;;;;;4.93;2.33;;;;;;;10.38;85.99;99144.66;4996695;28;20038;-87
2022/10/01 00:38:49;;;;;;;5.03;2.65;;;;;;;10.28;87.54;99146.00;4996221;28;20032;-87
2022/10/01 00:41:16;;;;;;;4.30;2.15;;;;;;;10.20;88.28;99152.41;4979802;28;20030;-90
2022/10/01 00:43:49;;;;;;;5.65;2.47;;;;;;;10.04;90.75;99138.84;5013782;28;20030;-88
2022/10/01 00:46:22;;;;;;;5.50;2.47;;;;;;;9.90;91.53;99133.84;5013398;28;20042;-86
2022/10/01 00:49:01;;;;;;;5.28;2.50;;;;;;;9.86;92.41;99127.56;5013751;28;20331;-87
2022/10/01 00:51:33;;;;;;;8.45;2.97;;;;;;;9.75;92.90;99133.91;4996303;28;20030;-82
2022/10/01 00:54:14;;;;;;;6.40;2.75;;;;;;;9.66;93.61;99115.03;4995507;28;20025;-88
2022/10/01 00:56:43;;;;;;;5.55;2.83;;;;;;;9.65;93.92;99113.47;4995196;28;20037;-85
2022/10/01 00:59:11;;;;;;;7.05;2.67;;;;;;;9.56;95.13;99088.41;4979002;28;20065;-84
2022/10/01 01:01:38;;;;;;;6.25;2.45;;;;;;;9.55;95.85;99082.16;4993359;28;20042;-88
2022/10/01 01:04:15;;;;;;;6.45;3.13;;;;;;;9.49;95.97;99066.50;4994844;28;20042;-88
2022/10/01 01:06:45;;;;;;;5.32;2.60;;;;;;;9.48;96.53;99067.66;5013085;28;20423;-86
2022/10/01 01:09:21;;;;;;;9.65;3.10;;;;;;;9.40;97.74;99077.53;5013101;28;20018;-85
2022/10/01 01:12:11;;;;;;;6.30;3.13;;;;;;;9.41;97.75;99062.06;5013118;28;20030;-88
2022/10/01 01:14:51;;;;;;;6.55;3.15;;;;;;;9.40;98.74;99071.31;5013272;28;20036;-92
2022/10/01 01:17:30;;;;;;;6.03;3.00;;;;;;;9.27;99.72;99068.72;5013656;28;20490;-87
2022/10/01 01:20:49;;;;;;;6.72;3.15;;;;;;;9.27;99.99;99044.28;5013152;28;20030;-84
2022/10/01 01:23:17;;;;;;;5.05;2.88;;;;;;;9.30;100.00;99059.84;4933806;29;20057;-85
2022/10/01 01:25:46;;;;;;;7.22;3.95;;;;;;;9.26;100.00;99050.84;4933603;29;20035;-92
2022/10/01 01:28:30;;;;;;;7.57;3.55;;;;;;;9.17;100.00;99044.78;4972975;28;20038;-91
2022/10/01 01:31:06;;;;;;;7.38;3.88;;;;;;;9.26;100.00;99029.09;5013611;28;20121;-90
2022/10/01 01:33:36;;;;;;;8.52;3.28;;;;;;;9.23;100.00;99013.50;4996195;28;20065;-89
2022/10/01 01:36:06;;;;;;;6.85;3.10;;;;;;;9.31;100.00;99012.53;5014365;28;20038;-92
2022/10/01 01:38:37;;;;;;;6.85;3.97;;;;;;;9.29;100.00;99006.66;4996172;28;20037;-87
2022/10/01 01:41:05;;;;;;;7.97;3.55;;;;;;;9.19;100.00;98993.63;5013096;28;20032;-86
2022/10/01 01:43:36;;;;;;;6.82;3.50;;;;;;;9.26;100.00;98999.22;5014331;28;20022;-90
2022/10/01 01:46:06;;;;;;;6.32;3.40;;;;;;;9.21;100.00;98985.13;5013249;28;20029;-85
2022/10/01 01:48:35;;;;;;;5.97;3.17;;;;;;;9.27;100.00;98979.06;4998179;28;20558;-88
2022/10/01 01:51:03;;;;;;;7.07;3.15;;;;;;;9.25;100.00;98967.78;4996889;28;20084;-89
2022/10/01 01:53:31;;;;;;;6.43;2.92;;;;;;;9.27;100.00;98981.78;5016044;28;20049;-87
2022/10/01 01:55:56;;;;;;;5.65;3.00;;;;;;;9.31;100.00;98974.50;5015048;28;20029;-83
2022/10/01 01:58:25;;;;;;;7.43;2.72;;;;;;;9.27;100.00;98970.94;5013012;28;20026;-87
2022/10/01 02:00:52;;;;;;;5.65;2.92;;;;;;;9.23;100.00;98975.47;5014923;28;20026;-87
2022/10/01 02:03:20;;;;;;;6.72;3.35;;;;;;;9.26;100.00;98982.94;5017375;28;20022;-82
2022/10/01 02:06:15;;;;;;;6.22;2.83;;;;;;;9.18;100.00;98953.22;4999547;28;20054;-91
2022/10/01 02:08:56;;;;;;;5.72;2.83;;;;;;;9.26;100.00;98961.19;4999517;28;20022;-93
2022/10/01 02:11:31;;;;;;;5.78;3.20;;;;;;;9.23;100.00;98961.88;5000447;28;20079;-86
2022/10/01 02:14:05;;;;;;;5.40;2.78;;;;;;;9.23;100.00;98948.31;5017072;28;20474;-92
2022/10/01 02:17:04;;;;;;;6.35;3.25;;;;;;;9.20;100.00;98954.44;5017340;28;20025;-86
2022/10/01 02:19:33;;;;;;;6.88;2.78;;;;;;;9.21;100.00;98956.03;5016533;28;20033;-87
2022/10/01 02:22:04;;;;;;;7.80;2.80;;;;;;;9.18;100.00;98962.16;4999251;28;20033;-90
2022/10/01 02:24:40;;;;;;;7.13;3.03;;;;;;;9.14;100.00;98968.66;5016545;28;20047;-93
2022/10/01 02:27:19;;;;;;;6.45;3.38;;;;;;;9.17;100.00;98976.09;5016287;28;20034;-90
2022/10/01 02:29:45;;;;;;;7.03;3.38;;;;;;;9.14;100.00;98974.88;4992716;28;20098;-91
2022/10/01 02:32:11;;;;;;;;;;;;;;;9.09;100.00;98991.44;5016654;28;20026;-87
2022/10/01 02:34:39;;;;;;;5.75;2.85;;;;;;;9.10;100.00;98979.44;5016323;28;20389;-91
2022/10/01 02:37:07;;;;;;;6.15;2.88;;;;;;;9.10;100.00;98968.59;5016191;28;20029;-90
2022/10/01 02:39:35;;;;;;;6.88;3.10;;;;;;;9.07;100.00;98953.00;4998680;28;20120;-85
2022/10/01 02:42:02;;;;;;;8.70;3.30;;;;;;;9.06;100.00;98959.53;5016512;28;20490;-89
2022/10/01 02:44:38;;;;;;;7.93;3.25;;;;;;;9.03;100.00;98966.47;4998480;28;20224;-87
2022/10/01 02:47:16;;;;;;;6.45;3.33;;;;;;;9.03;100.00;98969.19;5018111;28;20494;-90
2022/10/01 02:49:41;;;;;;;6.60;3.28;;;;;;;9.04;100.00;98948.25;4983023;28;20038;-90
2022/10/01 02:52:54;;;;;;;8.07;3.08;;;;;;;9.02;100.00;98923.38;4998392;28;20036;-86
2022/10/01 02:55:28;;;;;;;5.45;2.75;;;;;;;9.00;100.00;98903.94;4936439;29;20535;-92
2022/10/01 02:57:55;;;;;;;5.80;3.00;;;;;;;9.02;100.00;98912.53;4936006;29;20516;-82
2022/10/01 03:00:29;;;;;;;;;;;;;;;8.97;100.00;98926.38;4936324;29;20147;-84
2022/10/01 03:02:54;;;;;;;7.38;3.10;;;;;;;8.95;100.00;98931.38;4920279;29;20005;-86
2022/10/01 03:05:20;;;;;;;7.88;3.28;;;;;;;8.94;100.00;98933.31;4934742;29;20150;-81
2022/10/01 03:07:46;;;;;;;6.78;3.15;;;;;;;8.99;100.00;98907.81;4935280;29;20035;-80
2022/10/01 03:10:14;;;;;;;7.32;3.17;;;;;;;8.91;100.00;98903.38;4919223;29;20529;-81
2022/10/01 03:12:44;;;;;;;7.05;2.92;;;;;;;8.88;100.00;98885.84;4919220;29;20170;-81
2022/10/01 03:15:12;;;;;;;8.73;3.67;;;;;;;8.90;100.00;98890.91;4919484;29;20027;-82
2022/10/01 03:17:38;;;;;;;8.40;3.80;;;;;;;8.88;100.00;98895.91;4935424;29;20036;-85
2022/10/01 03:20:12;;;;;;;6.97;3.60;;;;;;;8.85;100.00;98886.53;4919148;29;20672;-89
2022/10/01 03:22:43;;;;;;;8.55;3.03;;;;;;;8.85;100.00;98891.97;4948198;28;20269;-91
2022/10/01 03:25:15;;;;;;;8.45;3.67;;;;;;;8.91;100.00;98895.22;4962433;28;20061;-82
2022/10/01 03:27:42;;;;;;;7.03;3.17;;;;;;;9.01;100.00;98889.22;4977933;28;20118;-88
2022/10/01 03:30:11;;;;;;;6.93;3.70;;;;;;;8.94;100.00;98889.88;4995242;28;20022;-92
2022/10/01 03:32:36;;;;;;;7.47;3.38;;;;;;;8.95;100.00;98896.09;4978152;28;20042;-83
2022/10/01 03:35:05;;;;;;;6.15;3.15;;;;;;;8.91;100.00;98889.78;4978756;28;20049;-87
2022/10/01 03:37:30;;;;;;;6.07;3.03;;;;;;;8.92;100.00;98891.38;4977299;28;20034;-85
2022/10/01 03:39:56;;;;;;;6.93;3.17;;;;;;;8.95;100.00;98885.22;4977712;28;20457;-83
2022/10/01 03:42:21;;;;;;;7.47;3.97;;;;;;;8.95;100.00;98879.78;4995161;28;20265;-85
2022/10/01 03:44:47;;;;;;;8.32;3.80;;;;;;;8.91;100.00;98865.38;4994847;28;20027;-87
2022/10/01 03:47:13;;;;;;;8.60;3.47;;;;;;;8.92;100.00;98859.56;4977518;28;20053;-84
2022/10/01 03:49:41;;;;;;;6.32;2.78;;;;;;;8.97;100.00;98834.06;4994799;28;20026;-90
2022/10/01 03:52:10;;;;;;;7.35;3.63;;;;;;;8.91;100.00;98827.34;4994616;28;20536;-88
2022/10/01 03:54:39;;;;;;;8.02;3.97;;;;;;;8.96;100.00;98810.78;4961444;28;20041;-89
2022/10/01 03:57:04;;;;;;;6.10;2.92;;;;;;;8.97;100.00;98823.22;4977433;28;20026;-87
2022/10/01 03:59:30;;;;;;;8.63;3.20;;;;;;;8.97;100.00;98813.13;4976527;28;20040;-84
2022/10/01 04:01:55;;;;;;;7.83;2.77;;;;;;;8.99;100.00;98810.06;4976973;28;20034;-83
2022/10/01 04:04:21;;;;;;;6.10;2.90;;;;;;;8.97;100.00;98815.84;4977582;28;20030;-84
2022/10/01 04:06:47;;;;;;;6.30;2.65;;;;;;;8.99;100.00;98791.06;4995969;28;20050;-85
2022/10/01 04:09:12;;;;;;;4.97;2.53;;;;;;;9.06;100.00;98799.34;4980147;28;20522;-84
2022/10/01 04:11:39;;;;;;;5.30;2.70;;;;;;;9.03;100.00;98810.91;5014225;28;20033;-84
2022/10/01 04:14:04;;;;;;;4.65;2.22;;;;;;;9.07;100.00;98800.94;5013965;28;20056;-81
2022/10/01 04:16:33;;;;;;;4.90;2.37;;;;;;;9.10;100.00;98797.50;5013877;28;20034;-82
2022/10/01 04:18:59;;;;;;;4.53;2.38;;;;;;;9.13;100.00;98826.66;5013975;28;20045;-84
2022/10/01 04:21:24;;;;;;;4.55;2.00;;;;;;;9.12;100.00;98825.09;4996072;28;20061;-83
2022/10/01 04:23:52;;;;;;;4.38;2.17;;;;;;;9.10;100.00;98804.88;4995295;28;20116;-82
2022/10/01 04:26:17;;;;;;;8.43;2.17;;;;;;;9.09;100.00;98806.81;4996085;28;20080;-83
2022/10/01 04:28:45;;;;;;;3.95;1.95;;;;;;;9.19;100.00;98795.34;5014003;28;20474;-88
2022/10/01 04:31:33;;;;;;;5.32;2.30;;;;;;;9.19;100.00;98805.44;4996116;28;20107;-86
2022/10/01 04:33:58;;;;;;;4.80;2.10;;;;;;;9.19;100.00;98797.28;5013673;28;20033;-85
2022/10/01 04:36:24;;;;;;;4.57;2.00;;;;;;;9.19;100.00;98800.78;4979729;28;20033;-82
2022/10/01 04:38:54;;;;;;;4.70;2.17;;;;;;;9.18;100.00;98801.16;4995984;28;20811;-86
2022/10/01 04:41:21;;;;;;;4.40;1.98;;;;;;;9.23;100.00;98793.50;4995900;28;20119;-83
2022/10/01 04:43:47;;;;;;;4.25;1.83;;;;;;;9.25;100.00;98790.44;4996046;28;20112;-84
2022/10/01 04:46:13;;;;;;;4.18;1.67;;;;;;;9.29;100.00;98813.81;4979764;28;20554;-83
2022/10/01 04:48:39;;;;;;;3.90;1.60;;;;;;;9.29;100.00;98778.50;4979668;28;20055;-84
2022/10/01 04:51:04;;;;;;;4.07;1.70;;;;;;;9.31;100.00;98787.06;4995706;28;20026;-86
2022/10/01 04:53:29;;;;;;;3.70;1.63;;;;;;;9.27;100.00;98771.84;4995271;28;20088;-89
2022/10/01 04:55:55;;;;;;;3.42;1.63;;;;;;;9.33;100.00;98778.56;5013177;28;20033;-84
2022/10/01 04:58:20;;;;;;;2.88;1.30;;;;;;;9.33;100.00;98775.84;5013151;28;20029;-83
2022/10/01 05:00:47;;;;;;;4.03;1.70;;;;;;;9.40;100.00;98788.78;4995461;28;20079;-88
2022/10/01 05:03:12;;;;;;;3.65;1.73;;;;;;;9.40;100.00;98769.75;5013235;28;20057;-81
2022/10/01 05:05:38;;;;;;;4.20;1.77;;;;;;;9.39;100.00;98768.19;5012690;28;20077;-83
2022/10/01 05:08:03;;;;;;;5.03;1.80;;;;;;;9.47;100.00;98778.84;4995501;28;20041;-81
2022/10/01 05:10:30;;;;;;;4.20;1.48;;;;;;;9.49;100.00;98773.03;4995208;28;20033;-87
2022/10/01 05:12:56;;;;;;;3.70;1.38;;;;;;;9.49;100.00;98784.69;4995535;28;20030;-83
2022/10/01 05:15:23;;;;;;;3.40;1.30;;;;;;;9.47;100.00;98787.00;5012782;28;20026;-81
2022/10/01 05:17:49;;;;;;;2.75;1.25;;;;;;;9.53;100.00;98785.53;5012842;28;20056;-84
2022/10/01 05:20:18;;;;;;;3.13;1.23;;;;;;;9.51;100.00;98792.50;5012629;28;20431;-83
2022/10/01 05:22:48;;;;;;;3.65;1.60;;;;;;;9.51;100.00;98796.00;4995336;28;20061;-83
2022/10/01 05:25:14;;;;;;;4.10;1.75;;;;;;;9.49;100.00;98794.78;5011218;28;20044;-90
2022/10/01 05:27:40;;;;;;;3.08;1.20;;;;;;;9.50;100.00;98796.34;4995185;28;20116;-81
2022/10/01 05:30:09;;;;;;;2.90;1.38;;;;;;;9.49;100.00;98805.66;4995193;28;20117;-82
2022/10/01 05:32:34;;;;;;;3.67;1.40;;;;;;;9.47;100.00;98821.53;5012493;28;20483;-79
2022/10/01 05:35:00;;;;;;;3.00;1.30;;;;;;;9.47;100.00;98807.94;4995126;28;20085;-80
2022/10/01 05:37:25;;;;;;;2.88;1.30;;;;;;;9.43;100.00;98807.09;4998687;28;20073;-81
2022/10/01 05:39:51;;;;;;;3.70;1.20;;;;;;;9.44;100.00;98822.25;4998716;28;20029;-80
2022/10/01 05:42:16;;;;;;;3.73;1.50;;;;;;;9.45;100.00;98827.31;4998819;28;20105;-80
2022/10/01 05:44:45;;;;;;;6.47;1.50;;;;;;;9.54;100.00;98824.38;5016365;28;20380;-81
2022/10/01 05:47:12;;;;;;;5.05;1.20;;;;;;;9.50;100.00;98831.69;5016756;28;20026;-79
2022/10/01 05:49:45;;;;;;;2.90;1.40;;;;;;;9.51;100.00;98841.41;5016855;28;20039;-79
2022/10/01 05:52:12;;;;;;;3.92;1.30;;;;;;;9.53;100.00;98841.81;4998790;28;20022;-83
2022/10/01 05:54:39;;;;;;;2.10;0.95;;;;;;;9.59;100.00;98859.44;5016551;28;20022;-78
2022/10/01 05:57:06;;;;;;;2.50;0.90;;;;;;;9.61;100.00;98854.41;4998210;28;20022;-78
2022/10/01 05:59:33;;;;;;;2.72;1.05;;;;;;;9.67;100.00;98854.91;5016059;28;20098;-78
2022/10/01 06:01:59;;;;;;;3.17;1.05;;;;;;;9.70;100.00;98860.41;5016057;28;20022;-78
2022/10/01 06:04:24;;;;;;;4.55;1.17;;;;;;;9.74;100.00;98849.59;5016013;28;20558;-79
2022/10/01 06:06:51;;;;;;;3.17;1.20;;;;;;;9.78;100.00;98866.78;5016061;28;20134;-78
2022/10/01 06:09:17;;;;;;;2.80;1.20;;;;;;;9.79;100.00;98865.63;5016103;28;20453;-78
2022/10/01 06:11:42;;;;;;;3.33;1.10;;;;;;;9.77;100.00;98857.84;5015969;28;20029;-80
2022/10/01 06:14:07;;;;;;;2.57;0.97;;;;;;;9.78;100.00;98859.41;5016318;28;20256;-79
2022/10/01 06:16:34;;;;;;;5.73;1.00;;;;;;;9.79;100.00;98860.97;5016017;28;20438;-82
2022/10/01 06:18:59;;;;;;;2.72;1.00;;;;;;;9.81;100.00;98877.72;5015883;28;20501;-78
2022/10/01 06:21:26;;;;;;;2.80;0.93;;;;;;;9.79;100.00;98871.84;4998628;28;20037;-82
2022/10/01 06:23:53;;;;;;;2.63;1.10;;;;;;;9.77;100.00;98876.88;5016186;28;20037;-81
2022/10/01 06:26:21;;;;;;;3.15;1.00;;;;;;;9.78;100.00;98867.56;4998295;28;20083;-83
2022/10/01 06:28:50;;;;;;;2.63;1.00;;;;;;;9.75;100.00;98886.53;5016064;28;20030;-80
2022/10/01 06:31:20;;;;;;;3.08;1.10;;;;;;;9.75;100.00;98864.78;5015407;28;20030;-77
2022/10/01 06:33:46;;;;;;;2.33;0.98;;;;;;;9.75;100.00;98876.44;5013974;28;20188;-78
2022/10/01 06:36:11;;;;;;;3.07;1.10;;;;;;;9.74;100.00;98874.06;4997644;28;20117;-81
2022/10/01 06:38:36;;;;;;;3.63;1.67;;;;;;;9.73;100.00;98875.22;4997484;28;20780;-80
2022/10/01 06:41:03;;;;;;;3.03;1.17;;;;;;;9.73;100.00;98867.06;5015787;28;20053;-80
2022/10/01 06:43:30;;;;;;;4.63;1.08;;;;;;;9.76;100.00;98878.00;5015400;28;20514;-78
2022/10/01 06:45:59;;;;;;;2.72;1.13;;;;;;;9.73;100.00;98875.22;4997617;28;20037;-78
2022/10/01 06:48:24;;;;;;;3.00;1.25;;;;;;;9.75;100.00;98876.44;5015429;28;20038;-81
2022/10/01 06:50:51;;;;;;;3.23;1.20;;;;;;;9.76;100.00;98869.88;5015788;28;20026;-79
2022/10/01 06:53:18;;;;;;;2.92;1.10;;;;;;;9.77;100.00;98868.72;4997886;28;20312;-80
2022/10/01 06:55:43;;;;;;;2.85;1.05;;;;;;;9.79;100.00;98874.56;5015137;28;20056;-79
2022/10/01 06:58:14;;;;;;;3.88;1.45;;;;;;;9.81;100.00;98864.13;5015198;28;20061;-78
2022/10/01 07:00:42;;;;;;;2.33;0.93;;;;;;;9.81;100.00;98869.56;5015708;28;20029;-79
2022/10/01 07:03:15;;;;;;;3.17;1.20;;;;;;;9.83;100.00;98875.41;5016118;28;20026;-80
2022/10/01 07:05:40;;;;;;;4.32;1.42;;;;;;;9.85;100.00;98872.34;5014310;28;20064;-80
2022/10/01 07:08:06;;;;;;;2.28;1.00;;;;;;;9.92;100.00;98873.28;5015286;28;20451;-80
2022/10/01 07:10:34;;;;;;;2.28;0.90;;;;;;;9.93;100.00;98887.66;4981391;28;20046;-80
2022/10/01 07:13:15;;;;;;;4.38;1.00;;;;;;;9.95;100.00;98877.22;4997335;28;20128;-79
2022/10/01 07:15:40;;;;;;;1.85;0.77;;;;;;;9.99;100.00;98872.63;5015150;28;20036;-79
2022/10/01 07:18:09;;;;;;;1.53;0.70;;;;;;;10.00;100.00;98889.72;4996555;28;20041;-79
2022/10/01 07:20:38;;;;;;;4.35;1.17;;;;;;;9.99;100.00;98897.09;4996984;28;20312;-79
2022/10/01 07:23:11;;;;;;;2.00;0.80;;;;;;;10.02;100.00;98888.19;5014964;28;20021;-79
2022/10/01 07:25:38;;;;;;;2.22;1.02;;;;;;;10.04;100.00;98898.72;4997362;28;20045;-79
2022/10/01 07:28:06;;;;;;;2.28;0.55;;;;;;;10.13;100.00;98910.16;4980740;28;20490;-79
2022/10/01 07:30:32;;;;;;;3.13;0.70;;;;;;;10.12;100.00;98909.38;4997044;28;20049;-78
2022/10/01 07:32:58;;;;;;;1.73;0.68;;;;;;;10.11;100.00;98907.03;4996730;28;20030;-81
2022/10/01 07:35:25;;;;;;;3.17;0.88;;;;;;;10.13;100.00;98904.72;5014429;28;20026;-80
2022/10/01 07:37:52;;;;;;;3.75;1.10;;;;;;;10.16;100.00;98909.44;4996994;28;20041;-81
2022/10/01 07:40:21;;;;;;;2.47;0.90;;;;;;;10.26;100.00;98913.53;5014542;28;20098;-80
2022/10/01 07:42:54;;;;;;;2.08;0.70;;;;;;;10.29;100.00;98915.53;5014531;28;20025;-84
2022/10/01 07:45:24;;;;;;;2.33;0.80;;;;;;;10.32;100.00;98928.41;4996505;28;20487;-82
2022/10/01 07:48:01;;;;;;;2.60;1.20;;;;;;;10.38;100.00;98922.31;5014056;28;20076;-81
2022/10/01 07:50:32;;;;;;;2.42;1.00;;;;;;;10.48;100.00;98921.72;5014154;28;20022;-81
2022/10/01 07:52:59;;;;;;;2.35;0.98;;;;;;;10.48;100.00;98927.16;5014044;28;20029;-81
2022/10/01 07:55:26;;;;;;;3.63;1.00;;;;;;;10.53;100.00;98917.91;4996694;28;20025;-84
2022/10/01 07:57:54;;;;;;;1.45;0.65;;;;;;;10.62;100.00;98923.09;5013388;28;20120;-83
2022/10/01 08:00:20;;;;;;;3.67;0.80;;;;;;;10.66;100.00;98935.63;4996225;28;20026;-81
2022/10/01 08:02:50;;;;;;;2.20;0.80;;;;;;;10.69;100.00;98931.38;5014062;28;20037;-81
2022/10/01 08:05:19;;;;;;;1.92;0.75;;;;;;;10.72;100.00;98933.38;4995932;28;20033;-82
2022/10/01 08:07:45;;;;;;;1.58;0.60;;;;;;;10.78;100.00;98930.00;5013861;28;20022;-81
2022/10/01 08:10:11;;;;;;;1.75;0.80;;;;;;;10.78;100.00;98929.22;4996236;28;20033;-81
2022/10/01 08:12:37;;;;;;;;;;;;;;;10.92;100.00;98924.00;5014127;28;20050;-81
2022/10/01 08:15:07;;;;;;;3.33;1.30;;;;;;;10.93;100.00;98936.47;5013679;28;19953;-82
2022/10/01 08:17:33;;;;;;;1.98;0.90;;;;;;;10.99;100.00;98936.94;4996086;28;20036;-84
2022/10/01 08:20:00;;;;;;;2.50;1.02;;;;;;;11.06;100.00;98939.75;4995969;28;20060;-80
2022/10/01 08:22:26;;;;;;;2.17;0.80;;;;;;;11.09;100.00;98945.28;4996248;28;20065;-81
2022/10/01 08:24:52;;;;;;;4.80;0.90;;;;;;;11.15;100.00;98949.25;4995783;28;20026;-80
2022/10/01 08:27:18;;;;;;;3.20;0.98;;;;;;;11.21;100.00;98951.66;5013351;28;20033;-80
2022/10/01 08:29:43;;;;;;;2.17;0.98;;;;;;;11.27;100.00;98956.44;5013699;28;20040;-82
2022/10/01 08:32:11;;;;;;;1.85;1.00;;;;;;;11.35;100.00;98954.59;4995547;28;20132;-81
2022/10/01 08:34:36;;;;;;;2.53;0.90;;;;;;;11.42;100.00;98958.22;5013201;28;20034;-81
2022/10/01 08:37:02;;;;;;;2.00;0.90;;;;;;;11.51;100.00;98957.94;5013725;28;20036;-83
2022/10/01 08:39:28;;;;;;;2.78;0.98;;;;;;;11.51;100.00;98960.66;5013140;28;20026;-80
2022/10/01 08:42:07;;;;;;;3.78;1.33;;;;;;;11.53;100.00;98963.78;5013866;28;20022;-82
2022/10/01 08:44:44;;;;;;;2.92;1.02;;;;;;;11.59;100.00;98964.25;5012946;28;20037;-79
2022/10/01 08:47:24;;;;;;;4.00;1.58;;;;;;;11.66;100.00;98978.78;4995502;28;20441;-80
2022/10/01 08:49:59;;;;;;;6.13;1.38;;;;;;;11.69;100.00;98972.59;5013394;28;20034;-79
2022/10/01 08:52:35;;;;;;;2.92;1.13;;;;;;;11.78;100.00;98977.00;5013027;28;20018;-80
2022/10/01 08:55:10;;;;;;;4.47;1.42;;;;;;;11.83;100.00;98988.38;5012651;28;20380;-80
2022/10/01 08:57:55;;;;;;;2.85;1.27;;;;;;;11.87;100.00;98986.47;5012914;28;20029;-82
2022/10/01 09:00:20;;;;;;;4.85;1.30;;;;;;;11.90;100.00;98985.75;5012642;28;20022;-80
2022/10/01 09:02:46;;;;;;;2.72;1.20;;;;;;;11.89;100.00;98997.03;4995210;28;20076;-83
2022/10/01 09:05:23;;;;;;;3.22;1.40;;;;;;;11.86;100.00;98993.09;5012444;28;20033;-84
2022/10/01 09:08:14;;;;;;;4.80;1.30;;;;;;;11.86;100.00;98995.03;5012696;28;20029;-81
2022/10/01 09:10:44;;;;;;;4.43;1.38;;;;;;;11.85;100.00;98996.97;4994741;28;20021;-79
2022/10/01 09:13:15;;;;;;;3.58;1.52;;;;;;;11.85;100.00;99001.66;4994620;28;20037;-78
2022/10/01 09:15:56;;;;;;;3.15;1.50;;;;;;;11.81;100.00;98993.44;5012743;28;20133;-82
2022/10/01 09:18:52;;;;;;;2.60;1.20;;;;;;;11.80;100.00;99008.22;4994679;28;20101;-84
2022/10/01 09:21:25;;;;;;;4.25;1.50;;;;;;;11.77;100.00;99005.41;5012630;28;20025;-78
2022/10/01 09:24:03;;;;;;;3.00;1.20;;;;;;;11.78;100.00;99005.06;4994746;28;20061;-78
2022/10/01 09:26:29;;;;;;;3.15;1.23;;;;;;;11.77;100.00;99002.69;5012899;28;20025;-81
2022/10/01 09:29:00;;;;;;;2.63;1.20;;;;;;;11.75;100.00;99012.00;4994768;28;20040;-78
2022/10/01 09:31:46;;;;;;;3.17;1.30;;;;;;;11.72;100.00;99010.03;5013002;28;20055;-79
2022/10/01 09:34:14;;;;;;;3.60;1.67;;;;;;;11.72;100.00;99010.03;4993601;28;20037;-79
2022/10/01 09:36:55;;;;;;;3.28;1.35;;;;;;;11.72;100.00;99012.75;5012515;28;20065;-79
2022/10/01 09:39:37;;;;;;;3.33;1.35;;;;;;;11.74;100.00;99015.09;5012337;28;20025;-77
2022/10/01 09:42:03;;;;;;;4.07;1.70;;;;;;;11.81;100.00;99017.19;5012488;28;20025;-75
2022/10/01 09:44:31;;;;;;;4.30;1.55;;;;;;;11.90;100.00;99025.88;4994797;28;20030;-76
2022/10/01 09:46:56;;;;;;;3.63;1.40;;;;;;;11.93;100.00;99028.66;5012318;28;20041;-75
2022/10/01 09:49:33;;;;;;;4.10;1.77;;;;;;;11.98;100.00;99027.56;4995069;28;20029;-75
2022/10/01 09:52:05;;;;;;;4.25;1.58;;;;;;;11.98;100.00;99031.06;4994490;28;20034;-76
2022/10/01 09:54:39;;;;;;;4.03;2.08;;;;;;;11.95;100.00;99034.53;4994645;28;20022;-76
2022/10/01 09:57:25;;;;;;;4.45;1.80;;;;;;;11.96;100.00;99035.31;4994511;28;20022;-76
2022/10/01 10:00:16;;;;;;;4.40;1.80;;;;;;;11.92;100.00;99040.69;5012271;28;20046;-76
2022/10/01 10:02:45;;;;;;;4.82;1.60;;;;;;;11.82;100.00;99035.13;4994631;28;20272;-77
2022/10/01 10:05:28;;;;;;;3.50;1.13;;;;;;;11.67;100.00;99045.78;5012172;28;20433;-76
2022/10/01 10:07:56;;;;;;;2.13;0.80;;;;;;;11.57;100.00;99035.50;5011823;28;20025;-76
2022/10/01 10:10:27;;;;;;;3.63;1.25;;;;;;;11.59;100.00;99038.69;5012065;28;20026;-76
2022/10/01 10:13:03;;;;;;;3.33;1.25;;;;;;;11.66;100.00;99040.72;4994387;28;20030;-76
2022/10/01 10:15:32;;;;;;;5.43;1.30;;;;;;;11.77;100.00;99044.38;5012254;28;20026;-76
2022/10/01 10:18:07;;;;;;;3.75;1.60;;;;;;;11.87;100.00;99049.22;5012137;28;20033;-75
2022/10/01 10:20:39;;;;;;;4.72;1.92;;;;;;;11.91;100.00;99039.13;5012131;28;20029;-76
2022/10/01 10:23:16;;;;;;;4.57;1.88;;;;;;;12.09;100.00;99050.28;5015415;28;20117;-77
2022/10/01 10:25:41;;;;;;;6.18;2.63;;;;;;;12.31;100.00;99046.69;5016069;28;20382;-77
2022/10/01 10:28:22;;;;;;;5.50;2.83;;;;;;;12.51;100.00;99058.22;5015820;28;20033;-77
2022/10/01 10:30:56;;;;;;;7.72;2.65;;;;;;;12.73;100.00;99058.44;4998876;28;20120;-76
2022/10/01 10:33:25;;;;;;;5.70;2.60;;;;;;;12.86;100.00;99052.34;5015853;28;20033;-77
2022/10/01 10:36:03;;;;;;;6.30;2.90;;;;;;;12.98;100.00;99051.28;4998286;28;20037;-78
2022/10/01 10:38:33;;;;;;;7.05;3.33;;;;;;;13.08;100.00;99061.50;4998057;28;20025;-76
2022/10/01 10:41:02;;;;;;;7.88;2.88;;;;;;;13.11;100.00;99060.00;5015419;28;20394;-76
2022/10/01 10:43:33;;;;;;;6.80;2.92;;;;;;;13.08;100.00;99066.97;5015792;28;20022;-77
2022/10/01 10:46:00;;;;;;;5.10;2.58;;;;;;;13.11;100.00;99071.72;4997935;28;20076;-76
2022/10/01 10:48:38;;;;;;;10.10;3.47;;;;;;;13.27;100.00;99073.41;4998089;28;20115;-76
2022/10/01 10:51:05;;;;;;;7.05;2.90;;;;;;;13.37;100.00;99076.25;5015498;28;20063;-76
2022/10/01 10:53:45;;;;;;;5.28;2.70;;;;;;;13.46;100.00;99079.47;4998265;28;20033;-77
2022/10/01 10:56:22;;;;;;;5.40;3.30;;;;;;;13.52;100.00;99079.88;5015508;28;20025;-75
2022/10/01 10:58:50;;;;;;;7.38;2.92;;;;;;;13.46;100.00;99087.66;4997769;28;20025;-75
2022/10/01 11:01:19;;;;;;;5.47;2.60;;;;;;;13.39;100.00;99087.59;4997704;28;20029;-76
2022/10/01 11:03:57;;;;;;;4.90;2.40;;;;;;;13.31;100.00;99094.19;4997683;28;20029;-76
2022/10/01 11:06:22;;;;;;;4.63;2.55;;;;;;;13.36;100.00;99093.81;4997449;28;20056;-76
2022/10/01 11:08:58;;;;;;;4.82;2.20;;;;;;;13.36;100.00;99099.28;5014991;28;20041;-75
2022/10/01 11:11:49;;;;;;;4.85;2.28;;;;;;;13.47;100.00;99081.03;5015199;28;20040;-76
2022/10/01 11:14:54;;;;;;;7.95;2.22;;;;;;;13.62;100.00;99089.34;4997419;28;20471;-74
2022/10/01 11:17:42;;;;;;;4.82;2.35;;;;;;;13.69;100.00;99092.13;4975042;28;20122;-76
2022/10/01 11:20:37;;;;;;;4.10;1.98;;;;;;;13.72;100.00;99094.09;5015074;28;20037;-76
2022/10/01 11:23:19;;;;;;;6.22;2.13;;;;;;;13.86;100.00;99096.94;5014441;28;20032;-76
2022/10/01 11:25:54;;;;;;;5.03;2.28;;;;;;;13.97;100.00;99095.06;5015085;28;20041;-76
2022/10/01 11:28:47;;;;;;;5.13;2.13;;;;;;;14.22;100.00;99097.13;5014916;28;20030;-76
2022/10/01 11:31:23;;;;;;;10.30;2.80;;;;;;;14.31;100.00;99103.06;5014664;28;20091;-75
2022/10/01 11:34:23;;;;;;;4.20;2.08;;;;;;;14.60;100.00;99101.25;5014638;28;20030;-76
2022/10/01 11:37:00;;;;;;;8.02;2.30;;;;;;;14.77;100.00;99097.00;5014482;28;20076;-77
2022/10/01 11:39:29;;;;;;;5.47;2.03;;;;;;;14.87;98.58;99091.56;5014559;28;20547;-76
2022/10/01 11:42:06;;;;;;;5.53;2.47;;;;;;;14.88;97.53;99097.81;5014504;28;20084;-77
2022/10/01 11:44:43;;;;;;;6.13;1.83;;;;;;;14.87;98.37;99099.78;5014510;28;20068;-76
2022/10/01 11:47:22;;;;;;;;;;;;;;;14.71;96.67;99094.63;5014418;28;20032;-76
2022/10/01 11:49:59;;;;;;;5.78;2.47;;;;;;;14.58;97.07;99096.16;5014031;28;19909;-77